Time;durP1;ratioP1;P1;durP2;ratioP2;P2;SDS_P1;SDS_P2;PMS_P1;PMS_P2;Temp;Humidity;BMP_temperature;BMP_pressure;BME280_temperature;BME280_humidity;BME280_pressure;Samples;Min_cycle;Max_cycle;Signal;HPM_P1;HPM_P2
2023/07/23 00:00:15;;;;;;;;;;;;;;;-140.72;100.00;52727.72;5099283;28;20362;-68
2023/07/23 00:02:42;;;;;;;;;;;;;;;-140.72;100.00;52658.72;5088993;28;20354;-68
2023/07/23 00:05:07;;;;;;;;;;;;;;;-140.72;100.00;52709.44;5089227;28;19920;-68
2023/07/23 00:07:34;;;;;;;;;;;;;;;-140.72;100.00;52717.56;5094601;28;19927;-68
2023/07/23 00:09:59;;;;;;;;;;;;;;;-140.72;100.00;52725.69;5078142;28;19917;-66
2023/07/23 00:12:25;;;;;;;;;;;;;;;-140.72;100.00;52703.34;5088841;28;20007;-67
2023/07/23 00:14:50;;;;;;;;;;;;;;;-140.72;100.00;52699.31;5094960;28;20010;-69
2023/07/23 00:17:15;;;;;;;;;;;;;;;-140.72;100.00;52705.38;5092698;28;19923;-67
2023/07/23 00:19:41;;;;;;;;;;;;;;;-140.72;100.00;52670.88;5101932;28;19927;-67
2023/07/23 00:22:06;;;;;;;;;;;;;;;-140.72;100.00;52681.03;5075874;28;19920;-68
2023/07/23 00:24:31;;;;;;;;;;;;;;;-140.72;100.00;52685.09;5096580;28;20228;-68
2023/07/23 00:26:57;;;;;;;;;;;;;;;-140.72;100.00;52681.03;5102701;28;20046;-67
2023/07/23 00:29:22;;;;;;;;;;;;;;;-140.72;100.00;52717.56;5083189;28;19931;-68
2023/07/23 00:31:47;;;;;;;;;;;;;;;-140.72;100.00;52703.34;5091190;28;20382;-68
2023/07/23 00:34:13;;;;;;;;;;;;;;;-140.72;100.00;52683.06;5079237;28;19927;-68
2023/07/23 00:36:39;;;;;;;;;;;;;;;-140.72;100.00;52679.00;5078602;28;19920;-68
2023/07/23 00:39:05;;;;;;;;;;;;;;;-140.72;100.00;52695.25;5086256;28;20030;-68
2023/07/23 00:41:30;;;;;;;;;;;;;;;-140.72;100.00;52707.41;5083140;28;19963;-69
2023/07/23 00:43:56;;;;;;;;;;;;;;;-140.72;100.00;52725.69;5094664;28;19920;-68
2023/07/23 00:46:21;;;;;;;;;;;;;;;-140.72;100.00;52683.06;5089708;28;19924;-68
2023/07/23 00:48:46;;;;;;;;;;;;;;;-140.72;100.00;52666.84;5098352;28;19920;-68
2023/07/23 00:51:12;;;;;;;;;;;;;;;-140.72;100.00;52646.53;5082537;28;20256;-68
2023/07/23 00:53:37;;;;;;;;;;;;;;;-140.72;100.00;52679.00;5081988;28;19960;-68
2023/07/23 00:56:02;;;;;;;;;;;;;;;-140.72;100.00;52683.06;5086004;28;20364;-68
2023/07/23 00:58:28;;;;;;;;;;;;;;;-140.72;100.00;52723.66;5089452;28;20361;-70
2023/07/23 01:00:53;;;;;;;;;;;;;;;-140.72;100.00;52715.53;5086367;28;19924;-68
2023/07/23 01:03:18;;;;;;;;;;;;;;;-140.72;100.00;52681.03;5074578;28;19927;-68
2023/07/23 01:05:44;;;;;;;;;;;;;;;-140.72;100.00;52693.22;5092394;28;19920;-68
2023/07/23 01:08:10;;;;;;;;;;;;;;;-140.72;100.00;52687.13;5085787;28;19920;-68
2023/07/23 01:10:35;;;;;;;;;;;;;;;-140.72;100.00;52693.22;5103832;28;19927;-68
2023/07/23 01:13:01;;;;;;;;;;;;;;;-140.72;100.00;52666.84;5095091;28;20342;-68
2023/07/23 01:15:27;;;;;;;;;;;;;;;-140.72;100.00;52695.25;5086420;28;19931;-68
2023/07/23 01:17:52;;;;;;;;;;;;;;;-140.72;100.00;52735.81;5088509;28;19931;-68
2023/07/23 01:20:20;;;;;;;;;;;;;;;-140.72;100.00;52697.28;5066879;28;19920;-68
2023/07/23 01:22:45;;;;;;;;;;;;;;;-140.72;100.00;52711.47;5085602;28;19921;-68
2023/07/23 01:25:10;;;;;;;;;;;;;;;-140.72;100.00;52691.19;5097080;28;20590;-68
2023/07/23 01:27:35;;;;;;;;;;;;;;;-140.72;100.00;52717.56;5098500;28;20417;-68
2023/07/23 01:30:01;;;;;;;;;;;;;;;-140.72;100.00;52699.31;5091036;28;19924;-68
2023/07/23 01:32:26;;;;;;;;;;;;;;;-140.72;100.00;52723.66;5095157;28;20289;-68
2023/07/23 01:34:52;;;;;;;;;;;;;;;-140.72;100.00;52699.31;5094503;28;19920;-68
2023/07/23 01:37:18;;;;;;;;;;;;;;;-140.72;100.00;52711.47;5091527;28;20001;-68
2023/07/23 01:39:43;;;;;;;;;;;;;;;-140.72;100.00;52695.25;5078017;28;20029;-68
2023/07/23 01:42:12;;;;;;;;;;;;;;;-140.72;100.00;52701.31;5092894;28;19951;-68
2023/07/23 01:44:38;;;;;;;;;;;;;;;-140.72;100.00;52689.16;5089924;28;19961;-68
2023/07/23 01:47:03;;;;;;;;;;;;;;;-140.72;100.00;52719.59;5112936;28;19963;-67
2023/07/23 01:49:28;;;;;;;;;;;;;;;-140.72;100.00;52717.56;5094049;28;20018;-68
2023/07/23 01:51:54;;;;;;;;;;;;;;;-140.72;100.00;52666.84;5085508;28;19924;-68
2023/07/23 01:54:19;;;;;;;;;;;;;;;-140.72;100.00;52717.56;5082699;28;20388;-68
2023/07/23 01:56:45;;;;;;;;;;;;;;;-140.72;100.00;52739.88;5094399;28;19954;-68
2023/07/23 01:59:11;;;;;;;;;;;;;;;-140.72;100.00;52689.16;5097663;28;19974;-68
2023/07/23 02:01:36;;;;;;;;;;;;;;;-140.72;100.00;52715.53;5084574;28;20012;-68
2023/07/23 02:04:01;;;;;;;;;;;;;;;-140.72;100.00;52715.53;5097282;28;19928;-68
2023/07/23 02:06:26;;;;;;;;;;;;;;;-140.72;100.00;52705.38;5090099;28;19916;-69
2023/07/23 02:08:52;;;;;;;;;;;;;;;-140.72;100.00;52674.94;5086858;28;20042;-68
2023/07/23 02:11:17;;;;;;;;;;;;;;;-140.72;100.00;52687.13;5081238;28;19916;-68
2023/07/23 02:13:44;;;;;;;;;;;;;;;-140.72;100.00;52695.25;5085981;28;20026;-68
2023/07/23 02:16:16;;;;;;;;;;;;;;;-140.72;100.00;52731.75;5068097;28;19956;-68
2023/07/23 02:18:43;;;;;;;;;;;;;;;-140.72;100.00;52709.44;5077863;28;19959;-68
2023/07/23 02:21:08;;;;;;;;;;;;;;;-140.72;100.00;52691.19;5096168;28;19963;-68
2023/07/23 02:23:33;;;;;;;;;;;;;;;-140.72;100.00;52699.31;5099618;28;19955;-68
2023/07/23 02:25:58;;;;;;;;;;;;;;;-140.72;100.00;52735.81;5076775;28;20325;-68
2023/07/23 02:28:23;;;;;;;;;;;;;;;-140.72;100.00;52739.88;5088872;28;20388;-69
2023/07/23 02:30:55;;;;;;;;;;;;;;;-140.72;100.00;52717.56;5088473;28;20415;-71
2023/07/23 02:33:21;;;;;;;;;;;;;;;-140.72;100.00;52709.44;5085557;28;19928;-71
2023/07/23 02:35:46;;;;;;;;;;;;;;;-140.72;100.00;52685.09;5080052;28;19974;-68
2023/07/23 02:38:11;;;;;;;;;;;;;;;-140.72;100.00;52707.41;5085347;28;19971;-68
2023/07/23 02:40:38;;;;;;;;;;;;;;;-140.72;100.00;52711.47;5081496;28;19959;-68
2023/07/23 02:43:03;;;;;;;;;;;;;;;-140.72;100.00;52703.34;5072021;28;19945;-68
2023/07/23 02:45:29;;;;;;;;;;;;;;;-140.72;100.00;52721.63;5092979;28;19936;-68
2023/07/23 02:47:54;;;;;;;;;;;;;;;-140.72;100.00;52687.13;5088744;28;19920;-69
2023/07/23 02:50:19;;;;;;;;;;;;;;;-140.72;100.00;52713.50;5079361;28;19974;-68
2023/07/23 02:52:44;;;;;;;;;;;;;;;-140.72;100.00;52699.31;5096520;28;19970;-68
2023/07/23 02:55:09;;;;;;;;;;;;;;;-140.72;100.00;52695.25;5090958;28;19920;-68
2023/07/23 02:57:35;;;;;;;;;;;;;;;-140.72;100.00;52739.88;5087280;28;20389;-68
2023/07/23 03:00:00;;;;;;;;;;;;;;;-140.72;100.00;52711.47;5077327;28;20423;-68
2023/07/23 03:02:25;;;;;;;;;;;;;;;-140.72;100.00;52725.69;5088849;28;20059;-68
2023/07/23 03:04:50;;;;;;;;;;;;;;;-140.72;100.00;52707.41;5104631;28;19978;-68
2023/07/23 03:07:16;;;;;;;;;;;;;;;-140.72;100.00;52723.66;5081462;28;19927;-68
2023/07/23 03:09:41;;;;;;;;;;;;;;;-140.72;100.00;52727.72;5078908;28;19916;-68
2023/07/23 03:12:07;;;;;;;;;;;;;;;-140.72;100.00;52735.81;5094731;28;20144;-68
2023/07/23 03:14:32;;;;;;;;;;;;;;;-140.72;100.00;52707.41;5091853;28;19924;-69
2023/07/23 03:16:57;;;;;;;;;;;;;;;-140.72;100.00;52743.94;5098449;28;19927;-70
2023/07/23 03:19:23;;;;;;;;;;;;;;;-140.72;100.00;52672.91;5091737;28;19920;-68
2023/07/23 03:21:48;;;;;;;;;;;;;;;-140.72;100.00;52717.56;5091172;28;20012;-69
2023/07/23 03:24:13;;;;;;;;;;;;;;;-140.72;100.00;52750.03;5092374;28;20397;-68
2023/07/23 03:26:39;;;;;;;;;;;;;;;-140.72;100.00;52679.00;5088947;28;20306;-68
2023/07/23 03:29:04;;;;;;;;;;;;;;;-140.72;100.00;52687.13;5098858;28;19920;-68
2023/07/23 03:31:29;;;;;;;;;;;;;;;-140.72;100.00;52735.81;5090635;28;19931;-68
2023/07/23 03:33:55;;;;;;;;;;;;;;;-140.72;100.00;52695.25;5096881;28;19938;-68
2023/07/23 03:36:20;;;;;;;;;;;;;;;-140.72;100.00;52756.13;5097294;28;19955;-68
2023/07/23 03:38:45;;;;;;;;;;;;;;;-140.72;100.00;52711.47;5095198;28;19971;-68
2023/07/23 03:41:11;;;;;;;;;;;;;;;-140.72;100.00;52729.75;5107085;28;19920;-68
2023/07/23 03:43:36;;;;;;;;;;;;;;;-140.72;100.00;52717.56;5094818;28;19916;-68
2023/07/23 03:46:01;;;;;;;;;;;;;;;-140.72;100.00;52731.75;5075946;28;19916;-68
2023/07/23 03:48:26;;;;;;;;;;;;;;;-140.72;100.00;52695.25;5090706;28;19919;-68
2023/07/23 03:50:51;;;;;;;;;;;;;;;-140.72;100.00;52687.13;5075673;28;19923;-68
2023/07/23 03:53:17;;;;;;;;;;;;;;;-140.72;100.00;52713.50;5076560;28;20008;-68
2023/07/23 03:55:42;;;;;;;;;;;;;;;-140.72;100.00;52723.66;5094039;28;19965;-68
2023/07/23 03:58:08;;;;;;;;;;;;;;;-140.72;100.00;52709.44;5095028;28;19920;-68
2023/07/23 04:00:33;;;;;;;;;;;;;;;-140.72;100.00;52695.25;5092529;28;19962;-70
2023/07/23 04:02:59;;;;;;;;;;;;;;;-140.72;100.00;52711.47;5087882;28;19920;-68
2023/07/23 04:05:24;;;;;;;;;;;;;;;-140.72;100.00;52715.53;5067764;28;19953;-68
2023/07/23 04:07:49;;;;;;;;;;;;;;;-140.72;100.00;52691.19;5088155;28;20385;-68
2023/07/23 04:10:14;;;;;;;;;;;;;;;-140.72;100.00;52743.94;5079159;28;20320;-68
2023/07/23 04:12:40;;;;;;;;;;;;;;;-140.72;100.00;52709.44;5089252;28;20018;-69
2023/07/23 04:15:05;;;;;;;;;;;;;;;-140.72;100.00;52652.63;5102007;28;19915;-69
2023/07/23 04:17:31;;;;;;;;;;;;;;;-140.72;100.00;52697.28;5091130;28;19961;-68
2023/07/23 04:19:56;;;;;;;;;;;;;;;-140.72;100.00;52713.50;5091847;28;19923;-68
2023/07/23 04:22:22;;;;;;;;;;;;;;;-140.72;100.00;52683.06;5093458;28;20362;-68
2023/07/23 04:24:47;;;;;;;;;;;;;;;-140.72;100.00;52715.53;5090518;28;19927;-68
2023/07/23 04:27:12;;;;;;;;;;;;;;;-140.72;100.00;52691.19;5087611;28;19964;-69
2023/07/23 04:29:37;;;;;;;;;;;;;;;-140.72;100.00;52672.91;5086364;28;20310;-69
2023/07/23 04:32:03;;;;;;;;;;;;;;;-140.72;100.00;52664.81;5084651;28;19927;-70
2023/07/23 04:34:28;;;;;;;;;;;;;;;-140.72;100.00;52650.59;5094337;28;19943;-70
2023/07/23 04:36:53;;;;;;;;;;;;;;;-140.72;100.00;52683.06;5090157;28;20010;-70
2023/07/23 04:39:19;;;;;;;;;;;;;;;-140.72;100.00;52687.13;5074893;28;19924;-70
2023/07/23 04:41:44;;;;;;;;;;;;;;;-140.72;100.00;52664.81;5084146;28;19920;-70
2023/07/23 04:44:10;;;;;;;;;;;;;;;-140.72;100.00;52664.81;5097748;28;20011;-71
2023/07/23 04:46:35;;;;;;;;;;;;;;;-140.72;100.00;52687.13;5088581;28;19923;-70
2023/07/23 04:49:00;;;;;;;;;;;;;;;-140.72;100.00;52709.44;5079532;28;19921;-70
2023/07/23 04:51:25;;;;;;;;;;;;;;;-140.72;100.00;52689.16;5078064;28;20359;-70
2023/07/23 04:53:51;;;;;;;;;;;;;;;-140.72;100.00;52689.16;5089866;28;19920;-69
2023/07/23 04:56:16;;;;;;;;;;;;;;;-140.72;100.00;52679.00;5097352;28;19916;-70
2023/07/23 04:58:41;;;;;;;;;;;;;;;-140.72;100.00;52679.00;5083862;28;20019;-69
2023/07/23 05:01:10;;;;;;;;;;;;;;;-140.72;100.00;52715.53;5094723;28;20003;-70
2023/07/23 05:03:35;;;;;;;;;;;;;;;-140.72;100.00;52687.13;5096559;28;19916;-69
2023/07/23 05:06:02;;;;;;;;;;;;;;;-140.72;100.00;52725.69;5093326;28;20361;-69
2023/07/23 05:08:27;;;;;;;;;;;;;;;-140.72;100.00;52713.50;5088279;28;20049;-69
2023/07/23 05:10:57;;;;;;;;;;;;;;;-140.72;100.00;52717.56;5088818;28;19919;-69
2023/07/23 05:13:22;;;;;;;;;;;;;;;-140.72;100.00;52689.16;5094471;28;19924;-69
2023/07/23 05:15:47;;;;;;;;;;;;;;;-140.72;100.00;52681.03;5088621;28;19938;-69
2023/07/23 05:18:12;;;;;;;;;;;;;;;-140.72;100.00;52705.38;5094554;28;20050;-70
2023/07/23 05:20:38;;;;;;;;;;;;;;;-140.72;100.00;52652.63;5099930;28;19927;-69
2023/07/23 05:23:03;;;;;;;;;;;;;;;-140.72;100.00;52697.28;5093173;28;19916;-69
2023/07/23 05:25:28;;;;;;;;;;;;;;;-140.72;100.00;52703.34;5077259;28;19963;-69
2023/07/23 05:27:54;;;;;;;;;;;;;;;-140.72;100.00;52697.28;5094204;28;19920;-69
2023/07/23 05:30:20;;;;;;;;;;;;;;;-140.72;100.00;52703.34;5089152;28;19920;-70
2023/07/23 05:32:45;;;;;;;;;;;;;;;-140.72;100.00;52723.66;5096774;28;19920;-69
2023/07/23 05:35:12;;;;;;;;;;;;;;;-140.72;100.00;52752.06;5096708;28;19943;-69
2023/07/23 05:37:37;;;;;;;;;;;;;;;-140.72;100.00;52721.63;5091677;28;19998;-69
2023/07/23 05:40:05;;;;;;;;;;;;;;;-140.72;100.00;52752.06;5084049;28;19981;-69
2023/07/23 05:42:31;;;;;;;;;;;;;;;-140.72;100.00;52705.38;5069363;28;20003;-68
2023/07/23 05:44:57;;;;;;;;;;;;;;;-140.72;100.00;52701.31;5105284;28;20026;-68
2023/07/23 05:47:22;;;;;;;;;;;;;;;-140.72;100.00;52727.72;5078551;28;19924;-69
2023/07/23 05:49:48;;;;;;;;;;;;;;;-140.72;100.00;52729.75;5099541;28;20346;-69
2023/07/23 05:52:14;;;;;;;;;;;;;;;-140.72;100.00;52674.94;5079741;28;19917;-69
2023/07/23 05:54:39;;;;;;;;;;;;;;;-140.72;100.00;52729.75;5095003;28;19968;-70
2023/07/23 05:57:05;;;;;;;;;;;;;;;-140.72;100.00;52729.75;5096345;28;20831;-69
2023/07/23 05:59:31;;;;;;;;;;;;;;;-140.72;100.00;52707.41;5084077;28;19924;-71
2023/07/23 06:01:56;;;;;;;;;;;;;;;-140.72;100.00;52735.81;5086177;28;20012;-74
2023/07/23 06:04:25;;;;;;;;;;;;;;;-140.72;100.00;52752.06;5087231;28;20081;-72
2023/07/23 06:06:50;;;;;;;;;;;;;;;-140.72;100.00;52725.69;5093827;28;19927;-68
2023/07/23 06:09:17;;;;;;;;;;;;;;;-140.72;100.00;52737.84;5090232;28;19916;-72
2023/07/23 06:11:42;;;;;;;;;;;;;;;-140.72;100.00;52739.88;5078505;28;19990;-73
2023/07/23 06:14:08;;;;;;;;;;;;;;;-140.72;100.00;52713.50;5085781;28;19970;-69
2023/07/23 06:16:33;;;;;;;;;;;;;;;-140.72;100.00;52731.75;5072250;28;19998;-70
2023/07/23 06:18:58;;;;;;;;;;;;;;;-140.72;100.00;52687.13;5074650;28;19982;-69
2023/07/23 06:21:24;;;;;;;;;;;;;;;-140.72;100.00;52739.88;5105590;28;19916;-69
2023/07/23 06:23:49;;;;;;;;;;;;;;;-140.72;100.00;52737.84;5088299;28;20113;-69
2023/07/23 06:26:15;;;;;;;;;;;;;;;-140.72;100.00;52679.00;5091769;28;19923;-70
2023/07/23 06:28:40;;;;;;;;;;;;;;;-140.72;100.00;52707.41;5082003;28;19920;-67
2023/07/23 06:31:06;;;;;;;;;;;;;;;-140.72;100.00;52727.72;5077531;28;19962;-69
2023/07/23 06:33:34;;;;;;;;;;;;;;;-140.72;100.00;52699.31;5082035;28;19971;-68
2023/07/23 06:36:00;;;;;;;;;;;;;;;-140.72;100.00;52709.44;5084070;28;20007;-68
2023/07/23 06:38:25;;;;;;;;;;;;;;;-140.72;100.00;52707.41;5066152;28;20419;-68
2023/07/23 06:40:52;;;;;;;;;;;;;;;-140.72;100.00;52705.38;5085787;28;19975;-69
2023/07/23 06:43:17;;;;;;;;;;;;;;;-140.72;100.00;52674.94;5093551;28;20290;-69
2023/07/23 06:45:43;;;;;;;;;;;;;;;-140.72;100.00;52699.31;5081659;28;19946;-69
2023/07/23 06:48:08;;;;;;;;;;;;;;;-140.72;100.00;52666.84;5092299;28;19916;-69
2023/07/23 06:50:33;;;;;;;;;;;;;;;-140.72;100.00;52731.75;5092764;28;19924;-70
2023/07/23 06:52:59;;;;;;;;;;;;;;;-140.72;100.00;52715.53;5076851;28;20287;-68
2023/07/23 06:55:24;;;;;;;;;;;;;;;-140.72;100.00;52711.47;5092924;28;19916;-69
2023/07/23 06:57:49;;;;;;;;;;;;;;;-140.72;100.00;52719.59;5076509;28;19983;-69
2023/07/23 07:00:15;;;;;;;;;;;;;;;-140.72;100.00;52646.53;5069985;28;19921;-70
2023/07/23 07:02:40;;;;;;;;;;;;;;;-140.72;100.00;52715.53;5092151;28;19920;-70
2023/07/23 07:05:05;;;;;;;;;;;;;;;-140.72;100.00;52685.09;5083233;28;19920;-69
2023/07/23 07:07:30;;;;;;;;;;;;;;;-140.72;100.00;52703.34;5094037;28;20365;-69
2023/07/23 07:09:56;;;;;;;;;;;;;;;-140.72;100.00;52683.06;5086834;28;19961;-69
2023/07/23 07:12:21;;;;;;;;;;;;;;;-140.72;100.00;52646.53;5081506;28;20015;-69
2023/07/23 07:14:46;;;;;;;;;;;;;;;-140.72;100.00;52691.19;5089900;28;20239;-68
2023/07/23 07:17:11;;;;;;;;;;;;;;;-140.72;100.00;52672.91;5100644;28;19916;-70
2023/07/23 07:19:37;;;;;;;;;;;;;;;-140.72;100.00;52725.69;5088462;28;19923;-69
2023/07/23 07:22:02;;;;;;;;;;;;;;;-140.72;100.00;52683.06;5091420;28;19931;-69
2023/07/23 07:24:28;;;;;;;;;;;;;;;-140.72;100.00;52717.56;5076536;28;19927;-69
2023/07/23 07:26:53;;;;;;;;;;;;;;;-140.72;100.00;52676.97;5083211;28;19999;-73
2023/07/23 07:29:19;;;;;;;;;;;;;;;-140.72;100.00;52676.97;5068547;28;20424;-74
2023/07/23 07:31:45;;;;;;;;;;;;;;;-140.72;100.00;52687.13;5090334;28;19921;-75
2023/07/23 07:34:11;;;;;;;;;;;;;;;-140.72;100.00;52654.66;5081261;28;19921;-71
2023/07/23 07:36:38;;;;;;;;;;;;;;;-140.72;100.00;52672.91;5104291;28;19951;-72
2023/07/23 07:39:04;;;;;;;;;;;;;;;-140.72;100.00;52705.38;5088092;28;19923;-69
2023/07/23 07:41:29;;;;;;;;;;;;;;;-140.72;100.00;52668.84;5084601;28;20317;-70
2023/07/23 07:43:55;;;;;;;;;;;;;;;-140.72;100.00;52662.78;5080227;28;19917;-70
2023/07/23 07:46:20;;;;;;;;;;;;;;;-140.72;100.00;52674.94;5082198;28;19917;-72
2023/07/23 07:48:46;;;;;;;;;;;;;;;-140.72;100.00;52711.47;5081414;28;19921;-72
2023/07/23 07:51:11;;;;;;;;;;;;;;;-140.72;100.00;52676.97;5063359;28;20381;-71
2023/07/23 07:53:37;;;;;;;;;;;;;;;-140.72;100.00;52660.75;5098082;28;19916;-70
2023/07/23 07:56:03;;;;;;;;;;;;;;;-140.72;100.00;52652.63;5084430;28;19927;-71
2023/07/23 07:58:29;;;;;;;;;;;;;;;-140.72;100.00;52664.81;5085665;28;19916;-71
2023/07/23 08:00:54;;;;;;;;;;;;;;;-140.72;100.00;52646.53;5072539;28;19956;-71
2023/07/23 08:03:21;;;;;;;;;;;;;;;-140.72;100.00;52646.53;5068142;28;20014;-72
2023/07/23 08:05:47;;;;;;;;;;;;;;;-140.72;100.00;52662.78;5086784;28;19998;-73
2023/07/23 08:08:23;;;;;;;;;;;;;;;-140.72;100.00;52668.84;5087162;28;20019;-76
2023/07/23 08:10:49;;;;;;;;;;;;;;;-140.72;100.00;52695.25;5091209;28;20396;-70
2023/07/23 08:13:14;;;;;;;;;;;;;;;-140.72;100.00;52636.38;5100514;28;19924;-71
2023/07/23 08:15:49;;;;;;;;;;;;;;;-140.72;100.00;52652.63;5092898;28;20341;-72
2023/07/23 08:18:15;;;;;;;;;;;;;;;-140.72;100.00;52670.88;5095680;28;20513;-72
2023/07/23 08:20:40;;;;;;;;;;;;;;;-140.72;100.00;52660.75;5097830;28;20025;-76
2023/07/23 08:23:06;;;;;;;;;;;;;;;-140.72;100.00;52646.53;5090007;28;19923;-71
2023/07/23 08:25:32;;;;;;;;;;;;;;;-140.72;100.00;52654.66;5082083;28;19999;-72
2023/07/23 08:28:01;;;;;;;;;;;;;;;-140.72;100.00;52664.81;5097500;28;19928;-73
2023/07/23 08:30:29;;;;;;;;;;;;;;;-140.72;100.00;52674.94;5096045;28;19927;-72
2023/07/23 08:32:55;;;;;;;;;;;;;;;-140.72;100.00;52654.66;5097313;28;19916;-72
2023/07/23 08:35:30;;;;;;;;;;;;;;;-140.72;100.00;52660.75;5091721;28;19924;-71
2023/07/23 08:37:55;;;;;;;;;;;;;;;-140.72;100.00;52610.00;5084683;28;19924;-72
2023/07/23 08:40:21;;;;;;;;;;;;;;;-140.72;100.00;52687.13;5066973;28;19923;-71
2023/07/23 08:42:56;;;;;;;;;;;;;;;-140.72;100.00;52658.72;5077553;28;20402;-71
2023/07/23 08:45:27;;;;;;;;;;;;;;;-140.72;100.00;52650.59;5069583;28;19924;-72
2023/07/23 08:48:04;;;;;;;;;;;;;;;-140.72;100.00;52656.69;5097075;28;19989;-70
2023/07/23 08:50:37;;;;;;;;;;;;;;;-140.72;100.00;52646.53;5093022;28;19938;-73
2023/07/23 08:53:03;;;;;;;;;;;;;;;-140.72;100.00;52687.13;5093176;28;20006;-71
2023/07/23 08:55:29;;;;;;;;;;;;;;;-140.72;100.00;52632.34;5097546;28;19984;-71
2023/07/23 08:58:03;;;;;;;;;;;;;;;-140.72;100.00;52636.38;5080472;28;20011;-74
2023/07/23 09:00:29;;;;;;;;;;;;;;;-140.72;100.00;52634.38;5078004;28;20004;-75
2023/07/23 09:02:54;;;;;;;;;;;;;;;-140.72;100.00;52683.06;5072528;28;20378;-74
2023/07/23 09:05:19;;;;;;;;;;;;;;;-140.72;100.00;52658.72;5077087;28;20020;-70
2023/07/23 09:07:46;;;;;;;;;;;;;;;-140.72;100.00;52662.78;5087633;28;19916;-72
2023/07/23 09:10:11;;;;;;;;;;;;;;;-140.72;100.00;52644.50;5097256;28;19927;-71
2023/07/23 09:12:45;;;;;;;;;;;;;;;-140.72;100.00;52646.53;5095304;28;19916;-73
2023/07/23 09:15:12;;;;;;;;;;;;;;;-140.72;100.00;52648.56;5062462;28;20006;-74
2023/07/23 09:17:37;;;;;;;;;;;;;;;-140.72;100.00;52662.78;5086102;28;19923;-71
2023/07/23 09:20:02;;;;;;;;;;;;;;;-140.72;100.00;52679.00;5092478;28;19938;-70
2023/07/23 09:22:33;;;;;;;;;;;;;;;-140.72;100.00;52654.66;5065051;28;19917;-71
2023/07/23 09:25:00;;;;;;;;;;;;;;;-140.72;100.00;52634.38;5077136;28;19920;-72
2023/07/23 09:27:33;;;;;;;;;;;;;;;-140.72;100.00;52695.25;5095412;28;19916;-74
2023/07/23 09:29:58;;;;;;;;;;;;;;;-140.72;100.00;52695.25;5083917;28;19917;-71
2023/07/23 09:32:25;;;;;;;;;;;;;;;-140.72;100.00;52709.44;5091200;28;19969;-73
2023/07/23 09:34:53;;;;;;;;;;;;;;;-140.72;100.00;52699.31;5063349;28;20456;-70
2023/07/23 09:37:18;;;;;;;;;;;;;;;-140.72;100.00;52721.63;5092892;28;19916;-71
2023/07/23 09:40:05;;;;;;;;;;;;;;;-140.72;100.00;52662.78;5085036;28;20395;-78
2023/07/23 09:42:36;;;;;;;;;;;;;;;-140.72;100.00;52666.84;5081865;28;19920;-77
2023/07/23 09:45:01;;;;;;;;;;;;;;;-140.72;100.00;52652.63;5103863;27;19920;-76
2023/07/23 09:47:27;;;;;;;;;;;;;;;-140.72;100.00;52703.34;5081194;28;19920;-77
2023/07/23 09:49:53;;;;;;;;;;;;;;;-140.72;100.00;52707.41;5094192;28;20028;-75
2023/07/23 09:52:21;;;;;;;;;;;;;;;-140.72;100.00;52683.06;5071187;28;19920;-77
2023/07/23 09:54:47;;;;;;;;;;;;;;;-140.72;100.00;52654.66;5077512;28;20273;-77
2023/07/23 09:57:12;;;;;;;;;;;;;;;-140.72;100.00;52670.88;5076745;28;20011;-77
2023/07/23 09:59:40;;;;;;;;;;;;;;;-140.72;100.00;52666.84;5076961;28;19943;-78
2023/07/23 10:02:08;;;;;;;;;;;;;;;-140.72;100.00;52620.16;5124851;27;19970;-77
2023/07/23 10:04:35;;;;;;;;;;;;;;;-140.72;100.00;52593.78;5100091;28;20328;-79
2023/07/23 10:07:00;;;;;;;;;;;;;;;-140.72;100.00;52593.78;5104599;28;20856;-78
2023/07/23 10:09:26;;;;;;;;;;;;;;;-140.72;100.00;52585.66;5096823;28;20014;-78
2023/07/23 10:11:51;;;;;;;;;;;;;;;-140.72;100.00;52601.91;5071495;28;19928;-77
2023/07/23 10:14:23;;;;;;;;;;;;;;;-140.72;100.00;52565.38;5082349;28;20258;-80
2023/07/23 10:16:49;;;;;;;;;;;;;;;-140.72;100.00;52618.13;5093295;28;19916;-77
2023/07/23 10:19:15;;;;;;;;;;;;;;;-140.72;100.00;52620.16;5065678;28;19927;-76
2023/07/23 10:21:59;;;;;;;;;;;;;;;-140.72;100.00;52591.75;5078843;28;19920;-75
2023/07/23 10:24:36;;;;;;;;;;;;;;;-140.72;100.00;52616.09;5078358;28;20011;-76
2023/07/23 10:27:09;;;;;;;;;;;;;;;-140.72;100.00;52646.53;5083137;28;19962;-77
2023/07/23 10:29:34;;;;;;;;;;;;;;;-140.72;100.00;52605.94;5054799;28;19969;-76
2023/07/23 10:32:19;;;;;;;;;;;;;;;-140.72;100.00;52654.66;5085848;28;19927;-77
2023/07/23 10:34:45;;;;;;;;;;;;;;;-140.72;100.00;52610.00;5067561;28;19978;-76
2023/07/23 10:37:13;;;;;;;;;;;;;;;-140.72;100.00;52618.13;5106464;28;19959;-76
2023/07/23 10:39:42;;;;;;;;;;;;;;;-140.72;100.00;52614.06;5081367;28;20389;-76
2023/07/23 10:42:07;;;;;;;;;;;;;;;-140.72;100.00;52595.81;5080409;28;20373;-75
2023/07/23 10:44:33;;;;;;;;;;;;;;;-140.72;100.00;52585.66;5062194;28;19920;-75
2023/07/23 10:47:02;;;;;;;;;;;;;;;-140.72;100.00;52583.63;5088719;28;19999;-75
2023/07/23 10:49:29;;;;;;;;;;;;;;;-140.72;100.00;52557.25;5072408;28;19924;-76
2023/07/23 10:52:11;;;;;;;;;;;;;;;-140.72;100.00;52561.31;5086479;28;20442;-75
2023/07/23 10:54:38;;;;;;;;;;;;;;;-140.72;100.00;52595.81;5065491;28;20011;-77
2023/07/23 10:57:04;;;;;;;;;;;;;;;-140.72;100.00;52551.16;5087149;28;19928;-77
2023/07/23 10:59:34;;;;;;;;;;;;;;;-140.72;100.00;52581.59;5074054;28;20022;-75
2023/07/23 11:02:03;;;;;;;;;;;;;;;-140.72;100.00;52589.72;5093067;28;19992;-77
2023/07/23 11:04:34;;;;;;;;;;;;;;;-140.72;100.00;52569.44;5078650;28;19920;-77
2023/07/23 11:07:00;;;;;;;;;;;;;;;-140.72;100.00;52601.91;5055805;28;19947;-78
2023/07/23 11:09:30;;;;;;;;;;;;;;;-140.72;100.00;52536.97;5087910;28;20320;-77
2023/07/23 11:11:56;;;;;;;;;;;;;;;-140.72;100.00;52585.66;5075231;28;19920;-77
2023/07/23 11:14:22;;;;;;;;;;;;;;;-140.72;100.00;52534.94;5061562;28;19923;-77
2023/07/23 11:16:49;;;;;;;;;;;;;;;-140.72;100.00;52524.78;5072626;28;19920;-77
2023/07/23 11:19:15;;;;;;;;;;;;;;;-140.72;100.00;52508.56;5090935;28;19971;-77
2023/07/23 11:21:49;;;;;;;;;;;;;;;-140.72;100.00;52526.81;5095232;28;20112;-77
2023/07/23 11:24:14;;;;;;;;;;;;;;;-140.72;100.00;52534.94;5090330;28;19927;-75
2023/07/23 11:26:40;;;;;;;;;;;;;;;-140.72;100.00;52555.22;5092411;28;19920;-75
2023/07/23 11:29:06;;;;;;;;;;;;;;;-140.72;100.00;52553.19;5087005;28;19921;-75
2023/07/23 11:31:33;;;;;;;;;;;;;;;-140.72;100.00;52593.78;5084582;28;19920;-74
2023/07/23 11:34:00;;;;;;;;;;;;;;;-140.72;100.00;52547.09;5087648;28;20006;-80
2023/07/23 11:36:28;;;;;;;;;;;;;;;-140.72;100.00;52569.44;5073818;28;19916;-73
2023/07/23 11:38:54;;;;;;;;;;;;;;;-140.72;100.00;52541.03;5063867;28;20011;-73
2023/07/23 11:41:26;;;;;;;;;;;;;;;-140.72;100.00;52506.53;5077418;28;20023;-73
2023/07/23 11:43:51;;;;;;;;;;;;;;;-140.72;100.00;52502.47;5060829;28;19920;-73
2023/07/23 11:46:17;;;;;;;;;;;;;;;-140.72;100.00;52530.88;5095549;28;19939;-73
2023/07/23 11:48:42;;;;;;;;;;;;;;;-140.72;100.00;52543.03;5080961;28;20336;-72
2023/07/23 11:51:08;;;;;;;;;;;;;;;-140.72;100.00;52382.75;5086222;28;19920;-73
2023/07/23 11:53:34;;;;;;;;;;;;;;;-140.72;100.00;52470.00;5077761;28;19980;-72
2023/07/23 11:56:03;;;;;;;;;;;;;;;-140.72;100.00;52508.56;5058268;28;19969;-73
2023/07/23 11:58:28;;;;;;;;;;;;;;;-140.72;100.00;52496.38;5088614;28;19920;-73
2023/07/23 12:00:54;;;;;;;;;;;;;;;-140.72;100.00;52433.47;5092562;28;19927;-73
2023/07/23 12:03:20;;;;;;;;;;;;;;;-140.72;100.00;52522.75;5092401;28;20100;-69
2023/07/23 12:05:45;;;;;;;;;;;;;;;-140.72;100.00;52522.75;5094978;28;19916;-71
2023/07/23 12:08:11;;;;;;;;;;;;;;;-140.72;100.00;52553.19;5091826;28;19917;-71
2023/07/23 12:10:36;;;;;;;;;;;;;;;-140.72;100.00;52595.81;5085554;28;19970;-71
2023/07/23 12:13:08;;;;;;;;;;;;;;;-140.72;100.00;52587.69;5090516;28;19944;-71